sensor_id;sensor_type;location;lat;lon;timestamp;P1;durP1;ratioP1;P2;durP2;ratioP2
50821;SDS011;36794;51.212;6.980;2023-02-15T00:01:37;32.27;;;19.33;;
50821;SDS011;36794;51.212;6.980;2023-02-15T00:04:03;35.83;;;21.03;;
50821;SDS011;36794;51.212;6.980;2023-02-15T00:06:29;38.50;;;20.63;;
50821;SDS011;36794;51.212;6.980;2023-02-15T00:08:55;35.60;;;19.70;;
50821;SDS011;36794;51.212;6.980;2023-02-15T00:11:21;35.70;;;21.53;;
50821;SDS011;36794;51.212;6.980;2023-02-15T00:14:12;36.05;;;20.45;;
50821;SDS011;36794;51.212;6.980;2023-02-15T00:16:39;35.83;;;21.13;;
50821;SDS011;36794;51.212;6.980;2023-02-15T00:19:06;35.90;;;21.30;;
50821;SDS011;36794;51.212;6.980;2023-02-15T00:21:32;36.93;;;20.83;;
50821;SDS011;36794;51.212;6.980;2023-02-15T00:23:59;36.00;;;20.10;;
50821;SDS011;36794;51.212;6.980;2023-02-15T00:26:25;39.30;;;21.77;;
50821;SDS011;36794;51.212;6.980;2023-02-15T00:28:51;33.60;;;20.03;;
50821;SDS011;36794;51.212;6.980;2023-02-15T00:31:17;35.40;;;20.23;;
50821;SDS011;36794;51.212;6.980;2023-02-15T00:33:43;33.23;;;19.47;;
50821;SDS011;36794;51.212;6.980;2023-02-15T00:36:09;35.47;;;19.93;;
50821;SDS011;36794;51.212;6.980;2023-02-15T00:38:36;33.73;;;19.30;;
50821;SDS011;36794;51.212;6.980;2023-02-15T00:41:03;31.97;;;19.30;;
50821;SDS011;36794;51.212;6.980;2023-02-15T00:43:29;33.00;;;19.33;;
50821;SDS011;36794;51.212;6.980;2023-02-15T00:45:56;33.83;;;19.33;;
50821;SDS011;36794;51.212;6.980;2023-02-15T00:48:22;40.70;;;21.63;;
50821;SDS011;36794;51.212;6.980;2023-02-15T00:50:49;37.60;;;20.70;;
50821;SDS011;36794;51.212;6.980;2023-02-15T00:53:15;33.67;;;19.60;;
50821;SDS011;36794;51.212;6.980;2023-02-15T00:55:42;32.13;;;18.70;;
50821;SDS011;36794;51.212;6.980;2023-02-15T00:58:08;34.83;;;20.03;;
50821;SDS011;36794;51.212;6.980;2023-02-15T01:00:34;34.90;;;19.97;;
50821;SDS011;36794;51.212;6.980;2023-02-15T01:03:00;36.40;;;20.73;;
50821;SDS011;36794;51.212;6.980;2023-02-15T01:05:26;35.17;;;20.70;;
50821;SDS011;36794;51.212;6.980;2023-02-15T01:07:54;33.93;;;20.53;;
50821;SDS011;36794;51.212;6.980;2023-02-15T01:10:20;37.00;;;22.07;;
50821;SDS011;36794;51.212;6.980;2023-02-15T01:12:46;38.77;;;22.97;;
50821;SDS011;36794;51.212;6.980;2023-02-15T01:15:12;42.10;;;22.53;;
50821;SDS011;36794;51.212;6.980;2023-02-15T01:17:38;41.93;;;23.17;;
50821;SDS011;36794;51.212;6.980;2023-02-15T01:20:04;41.30;;;23.93;;
50821;SDS011;36794;51.212;6.980;2023-02-15T01:22:30;41.27;;;24.37;;
50821;SDS011;36794;51.212;6.980;2023-02-15T01:24:56;45.20;;;24.77;;
50821;SDS011;36794;51.212;6.980;2023-02-15T01:27:22;42.37;;;24.10;;
50821;SDS011;36794;51.212;6.980;2023-02-15T01:29:48;44.63;;;23.67;;
50821;SDS011;36794;51.212;6.980;2023-02-15T01:32:14;44.80;;;25.43;;
50821;SDS011;36794;51.212;6.980;2023-02-15T01:34:40;45.80;;;23.73;;
50821;SDS011;36794;51.212;6.980;2023-02-15T01:37:06;50.63;;;26.73;;
50821;SDS011;36794;51.212;6.980;2023-02-15T01:39:32;46.13;;;25.23;;
50821;SDS011;36794;51.212;6.980;2023-02-15T01:41:58;40.67;;;23.83;;
50821;SDS011;36794;51.212;6.980;2023-02-15T01:47:09;46.42;;;24.35;;
50821;SDS011;36794;51.212;6.980;2023-02-15T01:49:36;40.87;;;23.23;;
50821;SDS011;36794;51.212;6.980;2023-02-15T01:52:02;41.90;;;23.97;;
50821;SDS011;36794;51.212;6.980;2023-02-15T01:54:29;39.57;;;22.37;;
50821;SDS011;36794;51.212;6.980;2023-02-15T01:56:58;43.60;;;23.67;;
50821;SDS011;36794;51.212;6.980;2023-02-15T01:59:26;39.63;;;22.20;;
50821;SDS011;36794;51.212;6.980;2023-02-15T02:01:52;39.83;;;22.80;;
50821;SDS011;36794;51.212;6.980;2023-02-15T02:04:29;39.03;;;22.80;;
50821;SDS011;36794;51.212;6.980;2023-02-15T02:06:57;37.23;;;22.27;;
50821;SDS011;36794;51.212;6.980;2023-02-15T02:09:23;38.97;;;21.67;;
50821;SDS011;36794;51.212;6.980;2023-02-15T02:11:49;37.43;;;22.03;;
50821;SDS011;36794;51.212;6.980;2023-02-15T02:14:16;37.53;;;21.43;;
50821;SDS011;36794;51.212;6.980;2023-02-15T02:16:53;37.37;;;21.70;;
50821;SDS011;36794;51.212;6.980;2023-02-15T02:24:23;39.83;;;22.40;;
50821;SDS011;36794;51.212;6.980;2023-02-15T02:29:48;40.13;;;21.80;;
50821;SDS011;36794;51.212;6.980;2023-02-15T02:35:01;46.97;;;24.70;;
50821;SDS011;36794;51.212;6.980;2023-02-15T02:37:31;43.27;;;25.00;;
50821;SDS011;36794;51.212;6.980;2023-02-15T02:42:38;43.17;;;23.87;;
50821;SDS011;36794;51.212;6.980;2023-02-15T02:45:09;40.90;;;23.37;;
50821;SDS011;36794;51.212;6.980;2023-02-15T02:47:49;44.97;;;24.67;;
50821;SDS011;36794;51.212;6.980;2023-02-15T02:50:17;45.50;;;24.23;;
50821;SDS011;36794;51.212;6.980;2023-02-15T02:52:45;42.53;;;23.90;;
50821;SDS011;36794;51.212;6.980;2023-02-15T02:57:39;46.20;;;24.80;;
50821;SDS011;36794;51.212;6.980;2023-02-15T03:00:05;41.87;;;24.23;;
50821;SDS011;36794;51.212;6.980;2023-02-15T03:02:34;40.80;;;23.43;;
50821;SDS011;36794;51.212;6.980;2023-02-15T03:05:05;44.40;;;24.93;;
50821;SDS011;36794;51.212;6.980;2023-02-15T03:07:32;43.00;;;22.73;;
50821;SDS011;36794;51.212;6.980;2023-02-15T03:10:01;40.40;;;22.63;;
50821;SDS011;36794;51.212;6.980;2023-02-15T03:12:32;40.47;;;22.73;;
50821;SDS011;36794;51.212;6.980;2023-02-15T03:17:29;42.50;;;23.33;;
50821;SDS011;36794;51.212;6.980;2023-02-15T03:19:58;36.93;;;21.60;;
50821;SDS011;36794;51.212;6.980;2023-02-15T03:22:30;38.03;;;22.47;;
50821;SDS011;36794;51.212;6.980;2023-02-15T03:27:38;37.97;;;22.43;;
50821;SDS011;36794;51.212;6.980;2023-02-15T03:30:04;42.23;;;23.53;;
50821;SDS011;36794;51.212;6.980;2023-02-15T03:32:31;37.47;;;21.77;;
50821;SDS011;36794;51.212;6.980;2023-02-15T03:34:58;41.93;;;22.63;;
50821;SDS011;36794;51.212;6.980;2023-02-15T03:40:00;38.67;;;22.07;;
50821;SDS011;36794;51.212;6.980;2023-02-15T03:43:01;38.90;;;21.93;;
50821;SDS011;36794;51.212;6.980;2023-02-15T03:45:29;39.83;;;22.70;;
50821;SDS011;36794;51.212;6.980;2023-02-15T03:47:56;40.13;;;22.33;;
50821;SDS011;36794;51.212;6.980;2023-02-15T03:50:24;41.33;;;23.87;;
50821;SDS011;36794;51.212;6.980;2023-02-15T03:53:11;43.30;;;23.70;;
50821;SDS011;36794;51.212;6.980;2023-02-15T03:55:38;41.00;;;23.77;;
50821;SDS011;36794;51.212;6.980;2023-02-15T03:58:04;42.70;;;23.53;;
50821;SDS011;36794;51.212;6.980;2023-02-15T04:00:51;47.10;;;24.35;;
50821;SDS011;36794;51.212;6.980;2023-02-15T04:03:39;43.03;;;23.33;;
50821;SDS011;36794;51.212;6.980;2023-02-15T04:06:06;44.43;;;24.30;;
50821;SDS011;36794;51.212;6.980;2023-02-15T04:08:32;41.47;;;23.90;;
50821;SDS011;36794;51.212;6.980;2023-02-15T04:11:16;44.63;;;21.90;;
50821;SDS011;36794;51.212;6.980;2023-02-15T04:13:42;37.30;;;21.73;;
50821;SDS011;36794;51.212;6.980;2023-02-15T04:16:08;42.00;;;23.97;;
50821;SDS011;36794;51.212;6.980;2023-02-15T04:18:38;41.30;;;23.07;;
50821;SDS011;36794;51.212;6.980;2023-02-15T04:21:24;40.93;;;22.67;;
50821;SDS011;36794;51.212;6.980;2023-02-15T04:24:09;38.37;;;21.93;;
50821;SDS011;36794;51.212;6.980;2023-02-15T04:26:54;43.42;;;24.27;;
50821;SDS011;36794;51.212;6.980;2023-02-15T04:29:24;39.70;;;22.37;;
50821;SDS011;36794;51.212;6.980;2023-02-15T04:31:50;39.70;;;22.90;;
50821;SDS011;36794;51.212;6.980;2023-02-15T04:34:17;44.47;;;23.47;;
50821;SDS011;36794;51.212;6.980;2023-02-15T04:36:43;41.50;;;21.90;;
50821;SDS011;36794;51.212;6.980;2023-02-15T04:39:09;44.57;;;24.00;;
50821;SDS011;36794;51.212;6.980;2023-02-15T04:41:35;47.30;;;24.80;;
50821;SDS011;36794;51.212;6.980;2023-02-15T04:44:01;42.43;;;23.43;;
50821;SDS011;36794;51.212;6.980;2023-02-15T04:46:27;44.73;;;23.53;;
50821;SDS011;36794;51.212;6.980;2023-02-15T04:48:53;40.93;;;22.90;;
50821;SDS011;36794;51.212;6.980;2023-02-15T04:51:19;43.93;;;24.70;;
50821;SDS011;36794;51.212;6.980;2023-02-15T04:53:45;44.63;;;23.83;;
50821;SDS011;36794;51.212;6.980;2023-02-15T04:56:11;46.00;;;24.00;;
50821;SDS011;36794;51.212;6.980;2023-02-15T04:58:37;41.47;;;22.47;;
50821;SDS011;36794;51.212;6.980;2023-02-15T05:01:06;45.37;;;24.10;;
50821;SDS011;36794;51.212;6.980;2023-02-15T05:03:32;42.87;;;22.57;;
50821;SDS011;36794;51.212;6.980;2023-02-15T05:05:58;44.00;;;23.70;;
50821;SDS011;36794;51.212;6.980;2023-02-15T05:08:24;42.93;;;23.93;;
50821;SDS011;36794;51.212;6.980;2023-02-15T05:10:50;45.13;;;23.30;;
50821;SDS011;36794;51.212;6.980;2023-02-15T05:13:16;42.70;;;23.57;;
50821;SDS011;36794;51.212;6.980;2023-02-15T05:15:46;51.00;;;24.87;;
50821;SDS011;36794;51.212;6.980;2023-02-15T05:18:12;50.47;;;25.10;;
50821;SDS011;36794;51.212;6.980;2023-02-15T05:20:38;53.33;;;25.73;;
50821;SDS011;36794;51.212;6.980;2023-02-15T05:23:04;47.37;;;25.07;;
50821;SDS011;36794;51.212;6.980;2023-02-15T05:25:30;41.43;;;23.97;;
50821;SDS011;36794;51.212;6.980;2023-02-15T05:28:14;37.17;;;18.77;;
50821;SDS011;36794;51.212;6.980;2023-02-15T05:30:47;44.70;;;24.33;;
50821;SDS011;36794;51.212;6.980;2023-02-15T05:33:13;48.83;;;25.50;;
50821;SDS011;36794;51.212;6.980;2023-02-15T05:35:39;47.67;;;25.57;;
50821;SDS011;36794;51.212;6.980;2023-02-15T05:38:05;44.70;;;24.20;;
50821;SDS011;36794;51.212;6.980;2023-02-15T05:40:31;47.40;;;24.10;;
50821;SDS011;36794;51.212;6.980;2023-02-15T05:42:57;42.63;;;24.17;;
50821;SDS011;36794;51.212;6.980;2023-02-15T05:45:23;44.17;;;24.13;;
50821;SDS011;36794;51.212;6.980;2023-02-15T05:47:49;44.70;;;24.10;;
50821;SDS011;36794;51.212;6.980;2023-02-15T05:50:15;49.37;;;25.27;;
50821;SDS011;36794;51.212;6.980;2023-02-15T05:52:41;44.37;;;23.07;;
50821;SDS011;36794;51.212;6.980;2023-02-15T05:55:07;50.30;;;26.10;;
50821;SDS011;36794;51.212;6.980;2023-02-15T05:57:33;47.97;;;25.67;;
50821;SDS011;36794;51.212;6.980;2023-02-15T05:59:59;50.53;;;25.17;;
50821;SDS011;36794;51.212;6.980;2023-02-15T06:02:26;46.53;;;24.83;;
50821;SDS011;36794;51.212;6.980;2023-02-15T06:04:52;48.27;;;25.30;;
50821;SDS011;36794;51.212;6.980;2023-02-15T06:07:17;46.73;;;24.80;;
50821;SDS011;36794;51.212;6.980;2023-02-15T06:09:43;49.47;;;24.77;;
50821;SDS011;36794;51.212;6.980;2023-02-15T06:12:09;48.23;;;24.20;;
50821;SDS011;36794;51.212;6.980;2023-02-15T06:14:35;43.00;;;23.47;;
50821;SDS011;36794;51.212;6.980;2023-02-15T06:17:01;48.40;;;23.93;;
50821;SDS011;36794;51.212;6.980;2023-02-15T06:19:27;46.77;;;24.90;;
50821;SDS011;36794;51.212;6.980;2023-02-15T06:21:53;40.73;;;23.57;;
50821;SDS011;36794;51.212;6.980;2023-02-15T06:24:19;43.80;;;23.83;;
50821;SDS011;36794;51.212;6.980;2023-02-15T06:26:45;43.07;;;23.33;;
50821;SDS011;36794;51.212;6.980;2023-02-15T06:29:11;41.03;;;23.23;;
50821;SDS011;36794;51.212;6.980;2023-02-15T06:31:37;42.43;;;22.07;;
50821;SDS011;36794;51.212;6.980;2023-02-15T06:34:02;40.57;;;22.93;;
50821;SDS011;36794;51.212;6.980;2023-02-15T06:36:29;41.97;;;21.83;;
50821;SDS011;36794;51.212;6.980;2023-02-15T06:38:56;41.07;;;21.50;;
50821;SDS011;36794;51.212;6.980;2023-02-15T06:41:22;42.77;;;23.50;;
50821;SDS011;36794;51.212;6.980;2023-02-15T06:43:48;43.73;;;22.63;;
50821;SDS011;36794;51.212;6.980;2023-02-15T06:46:14;41.67;;;22.57;;
50821;SDS011;36794;51.212;6.980;2023-02-15T06:48:40;48.90;;;23.80;;
50821;SDS011;36794;51.212;6.980;2023-02-15T06:51:06;49.40;;;25.50;;
50821;SDS011;36794;51.212;6.980;2023-02-15T06:53:32;42.40;;;23.23;;
50821;SDS011;36794;51.212;6.980;2023-02-15T06:56:05;41.03;;;23.10;;
50821;SDS011;36794;51.212;6.980;2023-02-15T06:58:33;38.53;;;22.40;;
50821;SDS011;36794;51.212;6.980;2023-02-15T07:01:00;40.80;;;22.00;;
50821;SDS011;36794;51.212;6.980;2023-02-15T07:03:26;43.50;;;22.77;;
50821;SDS011;36794;51.212;6.980;2023-02-15T07:05:55;43.83;;;22.93;;
50821;SDS011;36794;51.212;6.980;2023-02-15T07:08:21;43.53;;;23.43;;
50821;SDS011;36794;51.212;6.980;2023-02-15T07:10:51;47.30;;;24.73;;
50821;SDS011;36794;51.212;6.980;2023-02-15T07:13:17;42.60;;;23.37;;
50821;SDS011;36794;51.212;6.980;2023-02-15T07:15:44;44.23;;;23.90;;
50821;SDS011;36794;51.212;6.980;2023-02-15T07:18:10;39.40;;;23.47;;
50821;SDS011;36794;51.212;6.980;2023-02-15T07:20:36;38.30;;;21.63;;
50821;SDS011;36794;51.212;6.980;2023-02-15T07:23:03;33.47;;;19.80;;
50821;SDS011;36794;51.212;6.980;2023-02-15T07:25:29;32.13;;;17.90;;
50821;SDS011;36794;51.212;6.980;2023-02-15T07:27:58;34.80;;;18.80;;
50821;SDS011;36794;51.212;6.980;2023-02-15T07:30:24;28.37;;;17.63;;
50821;SDS011;36794;51.212;6.980;2023-02-15T07:32:50;29.37;;;16.83;;
50821;SDS011;36794;51.212;6.980;2023-02-15T07:35:38;32.20;;;16.43;;
50821;SDS011;36794;51.212;6.980;2023-02-15T07:38:11;29.80;;;17.67;;
50821;SDS011;36794;51.212;6.980;2023-02-15T07:40:37;29.03;;;17.30;;
50821;SDS011;36794;51.212;6.980;2023-02-15T07:43:03;28.10;;;17.30;;
50821;SDS011;36794;51.212;6.980;2023-02-15T07:45:29;33.17;;;18.00;;
50821;SDS011;36794;51.212;6.980;2023-02-15T07:47:55;28.97;;;16.93;;
50821;SDS011;36794;51.212;6.980;2023-02-15T07:50:21;32.03;;;17.93;;
50821;SDS011;36794;51.212;6.980;2023-02-15T07:52:47;28.57;;;17.07;;
50821;SDS011;36794;51.212;6.980;2023-02-15T07:55:13;29.43;;;17.97;;
50821;SDS011;36794;51.212;6.980;2023-02-15T07:57:42;27.87;;;16.77;;
50821;SDS011;36794;51.212;6.980;2023-02-15T08:00:12;30.43;;;17.17;;
50821;SDS011;36794;51.212;6.980;2023-02-15T08:02:39;28.50;;;16.70;;
50821;SDS011;36794;51.212;6.980;2023-02-15T08:05:05;30.67;;;17.83;;
50821;SDS011;36794;51.212;6.980;2023-02-15T08:07:31;29.67;;;17.30;;
50821;SDS011;36794;51.212;6.980;2023-02-15T08:09:57;28.00;;;16.00;;
50821;SDS011;36794;51.212;6.980;2023-02-15T08:12:25;27.77;;;15.47;;
50821;SDS011;36794;51.212;6.980;2023-02-15T08:14:51;25.07;;;14.67;;
50821;SDS011;36794;51.212;6.980;2023-02-15T08:17:17;22.87;;;13.90;;
50821;SDS011;36794;51.212;6.980;2023-02-15T08:19:43;24.97;;;13.50;;
50821;SDS011;36794;51.212;6.980;2023-02-15T08:22:12;23.50;;;14.23;;
50821;SDS011;36794;51.212;6.980;2023-02-15T08:24:38;22.53;;;13.80;;
50821;SDS011;36794;51.212;6.980;2023-02-15T08:27:08;22.80;;;13.57;;
50821;SDS011;36794;51.212;6.980;2023-02-15T08:29:35;24.27;;;13.50;;
50821;SDS011;36794;51.212;6.980;2023-02-15T08:32:03;22.03;;;13.10;;
50821;SDS011;36794;51.212;6.980;2023-02-15T08:34:31;20.30;;;13.20;;
50821;SDS011;36794;51.212;6.980;2023-02-15T08:36:57;23.70;;;14.33;;
50821;SDS011;36794;51.212;6.980;2023-02-15T08:39:23;23.20;;;13.50;;
50821;SDS011;36794;51.212;6.980;2023-02-15T08:41:49;20.33;;;13.50;;
50821;SDS011;36794;51.212;6.980;2023-02-15T08:44:16;22.27;;;13.37;;
50821;SDS011;36794;51.212;6.980;2023-02-15T08:46:43;18.47;;;12.07;;
50821;SDS011;36794;51.212;6.980;2023-02-15T08:49:15;22.37;;;12.60;;
50821;SDS011;36794;51.212;6.980;2023-02-15T08:51:41;20.03;;;12.37;;
50821;SDS011;36794;51.212;6.980;2023-02-15T08:54:08;19.97;;;12.50;;
50821;SDS011;36794;51.212;6.980;2023-02-15T08:56:36;18.50;;;12.33;;
50821;SDS011;36794;51.212;6.980;2023-02-15T08:59:02;19.93;;;12.03;;
50821;SDS011;36794;51.212;6.980;2023-02-15T09:01:29;18.20;;;11.77;;
50821;SDS011;36794;51.212;6.980;2023-02-15T09:03:57;17.83;;;12.23;;
50821;SDS011;36794;51.212;6.980;2023-02-15T09:06:23;19.47;;;12.13;;
50821;SDS011;36794;51.212;6.980;2023-02-15T09:08:49;18.93;;;11.93;;
50821;SDS011;36794;51.212;6.980;2023-02-15T09:13:47;20.93;;;11.93;;
50821;SDS011;36794;51.212;6.980;2023-02-15T09:16:13;19.20;;;12.10;;
50821;SDS011;36794;51.212;6.980;2023-02-15T09:18:42;17.93;;;12.00;;
50821;SDS011;36794;51.212;6.980;2023-02-15T09:21:09;21.03;;;12.77;;
50821;SDS011;36794;51.212;6.980;2023-02-15T09:23:38;19.70;;;12.00;;
50821;SDS011;36794;51.212;6.980;2023-02-15T09:26:04;17.60;;;11.80;;
50821;SDS011;36794;51.212;6.980;2023-02-15T09:28:30;18.07;;;11.77;;
50821;SDS011;36794;51.212;6.980;2023-02-15T09:31:03;19.77;;;11.33;;
50821;SDS011;36794;51.212;6.980;2023-02-15T09:33:29;19.53;;;12.27;;
50821;SDS011;36794;51.212;6.980;2023-02-15T09:35:56;19.47;;;12.30;;
50821;SDS011;36794;51.212;6.980;2023-02-15T09:38:22;16.50;;;11.77;;
50821;SDS011;36794;51.212;6.980;2023-02-15T09:40:56;19.90;;;11.73;;
50821;SDS011;36794;51.212;6.980;2023-02-15T09:43:29;19.97;;;11.37;;
50821;SDS011;36794;51.212;6.980;2023-02-15T09:56:32;18.67;;;11.37;;
50821;SDS011;36794;51.212;6.980;2023-02-15T09:59:10;18.90;;;11.70;;
50821;SDS011;36794;51.212;6.980;2023-02-15T10:02:01;17.60;;;10.98;;
50821;SDS011;36794;51.212;6.980;2023-02-15T10:07:12;19.47;;;12.13;;
50821;SDS011;36794;51.212;6.980;2023-02-15T10:09:46;18.70;;;11.70;;
50821;SDS011;36794;51.212;6.980;2023-02-15T10:17:54;19.65;;;12.13;;
50821;SDS011;36794;51.212;6.980;2023-02-15T10:29:05;18.23;;;10.87;;
50821;SDS011;36794;51.212;6.980;2023-02-15T10:31:24;17.10;;;11.03;;
50821;SDS011;36794;51.212;6.980;2023-02-15T10:41:42;18.77;;;11.30;;
50821;SDS011;36794;51.212;6.980;2023-02-15T10:46:45;22.17;;;11.77;;
50821;SDS011;36794;51.212;6.980;2023-02-15T10:52:05;16.75;;;10.60;;
50821;SDS011;36794;51.212;6.980;2023-02-15T11:02:26;17.93;;;10.47;;
50821;SDS011;36794;51.212;6.980;2023-02-15T11:07:36;19.20;;;10.73;;
50821;SDS011;36794;51.212;6.980;2023-02-15T11:12:32;20.87;;;11.30;;
50821;SDS011;36794;51.212;6.980;2023-02-15T11:15:03;19.70;;;10.57;;
50821;SDS011;36794;51.212;6.980;2023-02-15T11:17:33;18.50;;;10.70;;
50821;SDS011;36794;51.212;6.980;2023-02-15T11:20:08;15.23;;;9.97;;
50821;SDS011;36794;51.212;6.980;2023-02-15T11:22:35;17.52;;;10.55;;
50821;SDS011;36794;51.212;6.980;2023-02-15T11:25:04;20.23;;;11.47;;
50821;SDS011;36794;51.212;6.980;2023-02-15T11:27:40;20.07;;;10.87;;
50821;SDS011;36794;51.212;6.980;2023-02-15T11:32:37;20.17;;;11.27;;
50821;SDS011;36794;51.212;6.980;2023-02-15T11:37:39;21.23;;;11.00;;
50821;SDS011;36794;51.212;6.980;2023-02-15T11:40:24;18.60;;;11.23;;
50821;SDS011;36794;51.212;6.980;2023-02-15T11:42:52;18.67;;;11.20;;
50821;SDS011;36794;51.212;6.980;2023-02-15T11:45:30;18.33;;;10.23;;
50821;SDS011;36794;51.212;6.980;2023-02-15T11:47:57;16.27;;;9.67;;
50821;SDS011;36794;51.212;6.980;2023-02-15T11:50:24;20.83;;;10.57;;
50821;SDS011;36794;51.212;6.980;2023-02-15T11:52:51;22.03;;;10.97;;
50821;SDS011;36794;51.212;6.980;2023-02-15T11:55:20;22.20;;;11.43;;
50821;SDS011;36794;51.212;6.980;2023-02-15T11:57:49;25.63;;;11.57;;
50821;SDS011;36794;51.212;6.980;2023-02-15T12:00:27;19.83;;;11.57;;
50821;SDS011;36794;51.212;6.980;2023-02-15T12:02:56;20.67;;;11.20;;
50821;SDS011;36794;51.212;6.980;2023-02-15T12:05:23;19.53;;;11.23;;
50821;SDS011;36794;51.212;6.980;2023-02-15T12:08:03;20.60;;;10.60;;
50821;SDS011;36794;51.212;6.980;2023-02-15T12:10:36;18.90;;;10.80;;
50821;SDS011;36794;51.212;6.980;2023-02-15T12:13:17;18.57;;;11.23;;
50821;SDS011;36794;51.212;6.980;2023-02-15T12:15:44;18.13;;;10.70;;
50821;SDS011;36794;51.212;6.980;2023-02-15T12:20:46;22.37;;;11.67;;
50821;SDS011;36794;51.212;6.980;2023-02-15T12:23:14;17.83;;;10.70;;
50821;SDS011;36794;51.212;6.980;2023-02-15T12:25:48;20.90;;;11.37;;
50821;SDS011;36794;51.212;6.980;2023-02-15T12:30:48;22.80;;;11.17;;
50821;SDS011;36794;51.212;6.980;2023-02-15T12:33:15;17.23;;;10.93;;
50821;SDS011;36794;51.212;6.980;2023-02-15T12:35:43;19.27;;;10.70;;
50821;SDS011;36794;51.212;6.980;2023-02-15T12:40:35;21.47;;;11.40;;
50821;SDS011;36794;51.212;6.980;2023-02-15T12:43:01;19.50;;;10.67;;
50821;SDS011;36794;51.212;6.980;2023-02-15T12:45:34;20.43;;;10.67;;
50821;SDS011;36794;51.212;6.980;2023-02-15T12:48:13;21.20;;;11.33;;
50821;SDS011;36794;51.212;6.980;2023-02-15T12:50:43;17.60;;;10.27;;
50821;SDS011;36794;51.212;6.980;2023-02-15T12:55:38;21.53;;;10.10;;
50821;SDS011;36794;51.212;6.980;2023-02-15T13:00:44;19.37;;;10.07;;
50821;SDS011;36794;51.212;6.980;2023-02-15T13:03:17;21.63;;;10.30;;
50821;SDS011;36794;51.212;6.980;2023-02-15T13:05:44;18.37;;;10.23;;
50821;SDS011;36794;51.212;6.980;2023-02-15T13:08:14;18.77;;;10.17;;
50821;SDS011;36794;51.212;6.980;2023-02-15T13:10:42;16.63;;;9.60;;
50821;SDS011;36794;51.212;6.980;2023-02-15T13:13:16;18.07;;;10.03;;
50821;SDS011;36794;51.212;6.980;2023-02-15T13:15:46;16.73;;;9.73;;
50821;SDS011;36794;51.212;6.980;2023-02-15T13:18:18;18.47;;;10.20;;
50821;SDS011;36794;51.212;6.980;2023-02-15T13:20:45;16.43;;;9.77;;
50821;SDS011;36794;51.212;6.980;2023-02-15T13:23:28;18.03;;;9.03;;
50821;SDS011;36794;51.212;6.980;2023-02-15T13:25:55;19.80;;;10.10;;
50821;SDS011;36794;51.212;6.980;2023-02-15T13:28:22;19.80;;;10.10;;
50821;SDS011;36794;51.212;6.980;2023-02-15T13:30:50;17.10;;;9.93;;
50821;SDS011;36794;51.212;6.980;2023-02-15T13:33:28;19.70;;;10.37;;
50821;SDS011;36794;51.212;6.980;2023-02-15T13:41:04;20.10;;;10.07;;
50821;SDS011;36794;51.212;6.980;2023-02-15T13:51:30;18.23;;;9.45;;
50821;SDS011;36794;51.212;6.980;2023-02-15T13:59:24;17.67;;;9.20;;
50821;SDS011;36794;51.212;6.980;2023-02-15T14:04:49;18.95;;;9.40;;
50821;SDS011;36794;51.212;6.980;2023-02-15T14:15:03;21.50;;;10.07;;
50821;SDS011;36794;51.212;6.980;2023-02-15T14:19:58;19.73;;;10.17;;
50821;SDS011;36794;51.212;6.980;2023-02-15T14:25:17;17.43;;;9.10;;
50821;SDS011;36794;51.212;6.980;2023-02-15T14:32:42;18.40;;;9.87;;
50821;SDS011;36794;51.212;6.980;2023-02-15T14:35:17;19.47;;;9.60;;
50821;SDS011;36794;51.212;6.980;2023-02-15T14:37:50;17.23;;;9.20;;
50821;SDS011;36794;51.212;6.980;2023-02-15T14:43:11;18.23;;;9.50;;
50821;SDS011;36794;51.212;6.980;2023-02-15T14:45:56;17.30;;;9.50;;
50821;SDS011;36794;51.212;6.980;2023-02-15T14:53:44;18.33;;;9.40;;
50821;SDS011;36794;51.212;6.980;2023-02-15T14:59:00;21.70;;;9.67;;
50821;SDS011;36794;51.212;6.980;2023-02-15T15:01:28;20.77;;;10.37;;
50821;SDS011;36794;51.212;6.980;2023-02-15T15:03:56;20.00;;;9.97;;
50821;SDS011;36794;51.212;6.980;2023-02-15T15:06:33;22.60;;;9.93;;
50821;SDS011;36794;51.212;6.980;2023-02-15T15:09:08;18.00;;;9.73;;
50821;SDS011;36794;51.212;6.980;2023-02-15T15:11:40;20.53;;;10.23;;
50821;SDS011;36794;51.212;6.980;2023-02-15T15:14:06;19.90;;;10.20;;
50821;SDS011;36794;51.212;6.980;2023-02-15T15:19:11;19.60;;;10.10;;
50821;SDS011;36794;51.212;6.980;2023-02-15T15:29:42;17.17;;;9.95;;
50821;SDS011;36794;51.212;6.980;2023-02-15T15:32:08;24.17;;;10.33;;
50821;SDS011;36794;51.212;6.980;2023-02-15T15:34:47;19.60;;;10.20;;
50821;SDS011;36794;51.212;6.980;2023-02-15T15:42:48;21.33;;;10.73;;
50821;SDS011;36794;51.212;6.980;2023-02-15T15:50:41;20.50;;;11.52;;
50821;SDS011;36794;51.212;6.980;2023-02-15T15:53:18;23.73;;;11.43;;
50821;SDS011;36794;51.212;6.980;2023-02-15T15:55:46;21.37;;;11.70;;
50821;SDS011;36794;51.212;6.980;2023-02-15T15:58:13;20.33;;;11.27;;
50821;SDS011;36794;51.212;6.980;2023-02-15T16:00:49;20.47;;;11.00;;
50821;SDS011;36794;51.212;6.980;2023-02-15T16:03:20;20.70;;;10.50;;
50821;SDS011;36794;51.212;6.980;2023-02-15T16:05:46;18.27;;;10.17;;
50821;SDS011;36794;51.212;6.980;2023-02-15T16:08:25;21.93;;;11.50;;
50821;SDS011;36794;51.212;6.980;2023-02-15T16:10:51;20.45;;;11.30;;
50821;SDS011;36794;51.212;6.980;2023-02-15T16:13:17;26.13;;;12.27;;
50821;SDS011;36794;51.212;6.980;2023-02-15T16:15:44;22.47;;;11.80;;
50821;SDS011;36794;51.212;6.980;2023-02-15T16:18:14;22.93;;;11.47;;
50821;SDS011;36794;51.212;6.980;2023-02-15T16:20:41;21.60;;;11.43;;
50821;SDS011;36794;51.212;6.980;2023-02-15T16:26:14;18.50;;;11.57;;
50821;SDS011;36794;51.212;6.980;2023-02-15T16:28:51;21.57;;;11.70;;
50821;SDS011;36794;51.212;6.980;2023-02-15T16:31:17;21.23;;;11.60;;
50821;SDS011;36794;51.212;6.980;2023-02-15T16:33:43;23.13;;;12.73;;
50821;SDS011;36794;51.212;6.980;2023-02-15T16:36:26;24.80;;;13.00;;
50821;SDS011;36794;51.212;6.980;2023-02-15T16:43:47;23.37;;;13.57;;
50821;SDS011;36794;51.212;6.980;2023-02-15T16:46:18;23.07;;;13.77;;
50821;SDS011;36794;51.212;6.980;2023-02-15T16:48:46;22.20;;;13.87;;
50821;SDS011;36794;51.212;6.980;2023-02-15T16:51:21;25.43;;;13.23;;
50821;SDS011;36794;51.212;6.980;2023-02-15T16:53:47;23.50;;;12.82;;
50821;SDS011;36794;51.212;6.980;2023-02-15T16:56:14;24.20;;;13.03;;
50821;SDS011;36794;51.212;6.980;2023-02-15T16:58:42;20.00;;;11.70;;
50821;SDS011;36794;51.212;6.980;2023-02-15T17:01:08;25.80;;;13.07;;
50821;SDS011;36794;51.212;6.980;2023-02-15T17:03:35;23.27;;;13.63;;
50821;SDS011;36794;51.212;6.980;2023-02-15T17:06:02;20.37;;;12.67;;
50821;SDS011;36794;51.212;6.980;2023-02-15T17:13:29;22.00;;;12.77;;
50821;SDS011;36794;51.212;6.980;2023-02-15T17:20:57;23.07;;;13.03;;
50821;SDS011;36794;51.212;6.980;2023-02-15T17:23:28;20.60;;;12.97;;
50821;SDS011;36794;51.212;6.980;2023-02-15T17:25:55;21.87;;;12.90;;
50821;SDS011;36794;51.212;6.980;2023-02-15T17:28:22;22.43;;;13.33;;
50821;SDS011;36794;51.212;6.980;2023-02-15T17:30:49;20.50;;;12.80;;
50821;SDS011;36794;51.212;6.980;2023-02-15T17:33:24;21.60;;;13.83;;
50821;SDS011;36794;51.212;6.980;2023-02-15T17:36:04;21.80;;;12.77;;
50821;SDS011;36794;51.212;6.980;2023-02-15T17:38:31;24.00;;;12.87;;
50821;SDS011;36794;51.212;6.980;2023-02-15T17:40:57;24.30;;;13.73;;
50821;SDS011;36794;51.212;6.980;2023-02-15T17:43:24;23.40;;;13.77;;